Terminal Aerodrome Forecast
Issued by NWS

Home | Current Version | Previous Version | Text Only | Print | Product List | Glossary On
Versions: 1 2 3 4 5 6 7 8 9
000
FTUS42 KGSP 281135
TAFAND
TAF
KAND 281135Z 2812/2912 17003KT P6SM -RA OVC007
      TEMPO 2812/2814 4SM -RA BR BKN004 OVC008
     FM281400 18003KT P6SM -RA OVC005
     FM281800 23006KT P6SM OVC006
     FM282300 23003KT P6SM OVC024
     FM290400 00000KT 3SM -RA BR OVC023
     FM290800 00000KT P6SM -RA OVC011=

USA.gov is the U.S. government's official web portal to all federal, state and local government web resources and services.